Arabi, Louisiana
Current Conditions -  °F | °C
As of 10:15 AM on Sunday 23 Nov 2014 (Local Time) from KVSH Reporting Station
Broken Clouds Broken Clouds  
Wind Chill: 63°   Ceiling: 11000
Heat Index: 63°   Visibility: 10mi
Dew Point: 57°   Wind: 13mph
Humidity: 82%   Direction: 180°S
Pressure: 29.71"   Gusts: 23mph
Location:  29.95°N, 90.01°W
Report Text: KVSH 231615Z AUTO 18011G20KT 10SM BKN110 17/14 A2971 RMK AO1 P0001
Loading
Personal Weather Stations






























Interactive Weather Map New forecast layout! Learn more

10-Day Weather Forecast

Advertisements
Track Severe Weather on mobile